Time;durP1;ratioP1;P1;durP2;ratioP2;P2;SDS_P1;SDS_P2;PMS_P1;PMS_P2;Temp;Humidity;BMP_temperature;BMP_pressure;BME280_temperature;BME280_humidity;BME280_pressure;Samples;Min_cycle;Max_cycle;Signal;HPM_P1;HPM_P2
2023/03/14 00:01:46;;;;;;;1.15;0.52;;;12.30;99.90;;;12.42;100.00;98656.38;5169695;28;20043;-87
2023/03/14 00:04:18;;;;;;;2.72;1.02;;;12.30;99.90;;;12.38;100.00;98646.81;5145717;28;20058;-87
2023/03/14 00:06:52;;;;;;;2.28;0.80;;;12.30;99.90;;;12.35;100.00;98654.69;5153622;28;20049;-87
2023/03/14 00:09:24;;;;;;;2.60;0.80;;;12.30;99.90;;;12.32;100.00;98652.06;5150615;28;20043;-88
2023/03/14 00:11:57;;;;;;;1.85;0.80;;;12.30;99.90;;;12.31;100.00;98654.69;5158201;28;20057;-86
2023/03/14 00:14:30;;;;;;;1.77;0.80;;;12.30;99.90;;;12.29;100.00;98669.53;5151750;28;20046;-86
2023/03/14 00:17:02;;;;;;;2.35;0.80;;;12.30;99.90;;;12.28;100.00;98693.91;5142526;28;20047;-89
2023/03/14 00:19:35;;;;;;;3.30;0.80;;;12.20;99.90;;;12.29;100.00;98693.03;5210605;23;20662;-70
2023/03/14 00:22:09;;;;;;;1.45;0.60;;;12.20;99.90;;;12.27;100.00;98685.22;5123719;29;20068;-71
2023/03/14 00:24:41;;;;;;;3.17;0.80;;;12.20;99.90;;;12.29;100.00;98690.41;5123813;29;20050;-69
2023/03/14 00:27:13;;;;;;;3.95;1.08;;;12.20;99.90;;;12.28;100.00;98681.72;5123840;29;20499;-70
2023/03/14 00:29:45;;;;;;;1.33;0.80;;;12.20;99.90;;;12.31;100.00;98701.72;5138431;28;20055;-71
2023/03/14 00:32:17;;;;;;;1.55;0.80;;;12.20;99.90;;;12.29;100.00;98696.50;5123835;29;20049;-71
2023/03/14 00:34:50;;;;;;;4.80;1.00;;;12.20;99.90;;;12.31;100.00;98681.69;5138617;28;20061;-71
2023/03/14 00:37:24;;;;;;;4.00;0.80;;;12.30;99.90;;;12.32;100.00;98677.31;5138298;28;20504;-71
2023/03/14 00:39:58;;;;;;;1.63;0.60;;;12.30;99.90;;;12.32;100.00;98687.78;5123602;29;20043;-71
2023/03/14 00:42:31;;;;;;;5.57;1.00;;;12.30;99.90;;;12.39;100.00;98694.72;5123588;29;20039;-72
2023/03/14 00:45:04;;;;;;;3.83;1.02;;;12.30;99.90;;;12.42;100.00;98681.63;5123386;29;20039;-70
2023/03/14 00:47:39;;;;;;;3.83;1.00;;;12.30;99.90;;;12.43;100.00;98680.75;5123985;29;20047;-70
2023/03/14 00:50:12;;;;;;;2.80;0.90;;;12.30;99.90;;;12.42;100.00;98663.34;5123544;29;20435;-71
2023/03/14 00:52:47;;;;;;;3.47;0.80;;;12.40;99.90;;;12.45;100.00;98668.53;5138154;28;20058;-71
2023/03/14 00:55:19;;;;;;;2.38;0.70;;;12.40;99.90;;;12.47;100.00;98687.69;5123656;29;20047;-69
2023/03/14 00:57:52;;;;;;;2.28;0.73;;;12.30;99.90;;;12.50;100.00;98675.47;5124015;28;20050;-70
2023/03/14 01:00:24;;;;;;;5.72;0.80;;;12.40;99.90;;;12.49;100.00;98685.94;5123681;29;20047;-69
2023/03/14 01:02:56;;;;;;;3.00;0.90;;;12.40;99.90;;;12.60;100.00;98693.72;5123334;29;20534;-70
2023/03/14 01:05:29;;;;;;;2.08;0.82;;;12.50;99.90;;;12.65;100.00;98687.59;5138098;28;20044;-70
2023/03/14 01:08:04;;;;;;;4.80;0.82;;;12.50;99.90;;;12.66;100.00;98678.88;5123580;29;20043;-71
2023/03/14 01:10:40;;;;;;;1.88;0.80;;;12.50;99.90;;;12.61;100.00;98683.25;5122007;29;20044;-71
2023/03/14 01:13:12;;;;;;;4.15;0.90;;;12.50;99.90;;;12.68;100.00;98687.56;5123650;29;20039;-69
2023/03/14 01:15:44;;;;;;;4.30;0.75;;;12.60;99.90;;;12.68;100.00;98691.91;5138377;28;20047;-70
2023/03/14 01:18:16;;;;;;;4.00;1.05;;;12.60;99.90;;;12.64;100.00;98692.81;5123136;29;20411;-71
2023/03/14 01:20:49;;;;;;;3.47;0.73;;;12.50;99.90;;;12.66;100.00;98689.31;5121806;29;20052;-72
2023/03/14 01:23:22;;;;;;;4.60;0.90;;;12.60;99.90;;;12.66;100.00;98673.63;5123091;29;20047;-70
2023/03/14 01:25:54;;;;;;;6.30;0.80;;;12.50;99.90;;;12.64;100.00;98685.81;5123389;28;20051;-70
2023/03/14 01:28:27;;;;;;;2.42;0.70;;;12.50;99.90;;;12.68;100.00;98677.09;5138146;28;20055;-70
2023/03/14 01:31:04;;;;;;;1.02;0.68;;;12.60;99.90;;;12.65;100.00;98677.13;5126473;28;20063;-70
2023/03/14 01:33:36;;;;;;;1.98;0.60;;;12.60;99.90;;;12.61;100.00;98683.25;5125527;29;20090;-70
2023/03/14 01:36:11;;;;;;;2.25;0.68;;;12.50;99.90;;;12.60;100.00;98681.50;5126876;29;20508;-71
2023/03/14 01:38:45;;;;;;;2.25;0.80;;;12.50;99.90;;;12.56;100.00;98692.84;5125675;29;20130;-70
2023/03/14 01:41:24;;;;;;;2.70;0.63;;;12.50;99.90;;;12.53;100.00;98692.03;5141823;28;20058;-71
2023/03/14 01:43:58;;;;;;;1.40;0.50;;;12.50;99.90;;;12.50;100.00;98692.88;5125976;29;20047;-71
2023/03/14 01:46:38;;;;;;;1.52;0.63;;;12.50;99.90;;;12.46;100.00;98691.19;5142228;28;20410;-71
2023/03/14 01:49:25;;;;;;;1.15;0.65;;;12.40;99.90;;;12.43;100.00;98692.06;5125593;28;20459;-72
2023/03/14 01:52:08;;;;;;;1.48;0.77;;;12.40;99.90;;;12.38;100.00;98683.38;5141921;28;20047;-72
2023/03/14 01:54:45;;;;;;;3.67;0.73;;;12.30;99.90;;;12.32;100.00;98669.50;5141694;28;20043;-73
2023/03/14 01:57:22;;;;;;;1.65;0.60;;;12.30;99.90;;;12.26;100.00;98672.13;5126883;29;20058;-71
2023/03/14 02:00:01;;;;;;;1.33;0.60;;;12.20;99.90;;;12.20;100.00;98686.13;5135187;28;20097;-71
2023/03/14 02:02:33;;;;;;;1.90;0.70;;;12.20;99.90;;;12.12;100.00;98680.03;5147474;28;20047;-71
2023/03/14 02:05:07;;;;;;;2.28;0.70;;;12.10;99.90;;;12.05;100.00;98673.97;5136441;28;20400;-71
2023/03/14 02:07:47;;;;;;;1.88;0.90;;;12.00;99.90;;;11.99;100.00;98668.78;5138473;28;20036;-71
2023/03/14 02:10:30;;;;;;;4.15;0.57;;;11.90;99.90;;;11.94;100.00;98670.59;5145973;28;20458;-71
2023/03/14 02:13:06;;;;;;;3.05;0.63;;;11.90;99.90;;;11.85;100.00;98675.81;5151619;28;20054;-71
2023/03/14 02:15:53;;;;;;;2.85;0.70;;;11.80;99.90;;;11.76;100.00;98666.25;5125759;28;20043;-72
2023/03/14 02:18:41;;;;;;;;;;;11.70;99.90;;;11.69;100.00;98665.41;5137133;28;20057;-71
2023/03/14 02:21:47;;;;;;;1.45;0.40;;;11.60;99.90;;;11.59;100.00;98653.25;5126537;29;19969;-70
2023/03/14 02:24:30;;;;;;;0.70;0.30;;;11.60;99.90;;;11.49;100.00;98651.56;5105200;29;20056;-71
2023/03/14 02:27:12;;;;;;;2.28;0.50;;;11.50;99.90;;;11.36;100.00;98653.34;5139286;28;20050;-71
2023/03/14 02:29:53;;;;;;;0.43;0.43;;;11.40;99.90;;;11.28;100.00;98656.81;5121106;28;20423;-71
2023/03/14 02:32:28;;;;;;;0.30;0.30;;;11.30;99.90;;;11.26;100.00;98658.56;5120965;29;20048;-71
2023/03/14 02:35:05;;;;;;;1.08;0.60;;;11.20;99.90;;;11.24;100.00;98652.50;5123361;29;20039;-70
2023/03/14 02:37:43;;;;;;;1.30;0.50;;;11.20;99.90;;;11.21;100.00;98635.09;5140944;28;20051;-71
2023/03/14 02:40:16;;;;;;;1.40;0.50;;;11.20;99.90;;;11.17;100.00;98622.09;5133414;28;20046;-72
2023/03/14 02:42:51;;;;;;;0.98;0.40;;;11.10;99.90;;;11.12;100.00;98625.56;5140599;28;20457;-70
2023/03/14 02:45:43;;;;;;;0.30;0.30;;;11.10;99.90;;;11.07;100.00;98616.88;5145213;28;20570;-71
2023/03/14 02:48:21;;;;;;;1.95;0.30;;;11.00;99.90;;;11.00;100.00;98616.91;5140672;28;20055;-72
2023/03/14 02:50:57;;;;;;;0.45;0.30;;;10.90;99.90;;;10.93;100.00;98605.63;5124631;28;20089;-71
2023/03/14 02:53:33;;;;;;;1.48;0.40;;;10.90;99.90;;;10.87;100.00;98603.00;5144086;28;20138;-70
2023/03/14 02:56:11;;;;;;;1.42;0.30;;;10.90;99.90;;;10.80;100.00;98601.28;5145447;28;20545;-70
2023/03/14 02:58:45;;;;;;;1.15;0.50;;;10.80;99.90;;;10.75;100.00;98593.47;5144285;28;20047;-71
2023/03/14 03:01:31;;;;;;;1.95;0.38;;;10.70;99.90;;;10.72;100.00;98592.63;5120541;29;20075;-71
2023/03/14 03:04:05;;;;;;;0.30;0.30;;;10.70;99.90;;;10.69;100.00;98593.47;5107180;28;20051;-71
2023/03/14 03:06:37;;;;;;;1.88;0.73;;;10.70;99.90;;;10.69;100.00;98592.59;5160232;28;20046;-71
2023/03/14 03:09:09;;;;;;;1.45;0.55;;;10.70;99.90;;;10.69;100.00;98593.47;5145305;28;20388;-71
2023/03/14 03:11:41;;;;;;;0.30;0.30;;;10.60;99.90;;;10.73;100.00;98594.34;5145128;28;20123;-71
2023/03/14 03:14:19;;;;;;;0.32;0.32;;;10.70;99.90;;;10.75;100.00;98595.19;5144976;28;20035;-71
2023/03/14 03:16:51;;;;;;;1.35;0.40;;;10.70;99.90;;;10.76;100.00;98595.22;5143752;28;20495;-71
2023/03/14 03:19:23;;;;;;;1.08;0.32;;;10.70;99.90;;;10.77;100.00;98586.53;5140930;28;20411;-70
2023/03/14 03:21:55;;;;;;;0.60;0.43;;;10.70;99.90;;;10.78;100.00;98590.00;5123637;29;20552;-70
2023/03/14 03:24:27;;;;;;;1.85;0.50;;;10.70;99.90;;;10.77;100.00;98585.66;5137189;28;20495;-70
2023/03/14 03:27:01;;;;;;;1.50;0.50;;;10.70;99.90;;;10.77;100.00;98588.28;5144888;28;20125;-71
2023/03/14 03:29:35;;;;;;;1.85;0.60;;;10.70;99.90;;;10.78;100.00;98587.41;5145257;28;20411;-71
2023/03/14 03:32:07;;;;;;;1.00;0.47;;;10.70;99.90;;;10.79;100.00;98586.53;5143015;28;20072;-71
2023/03/14 03:34:40;;;;;;;2.05;0.55;;;10.70;99.90;;;10.81;100.00;98588.25;5143166;28;20419;-70
2023/03/14 03:37:12;;;;;;;1.95;0.50;;;10.80;99.90;;;10.82;100.00;98581.28;5143075;28;20050;-74
2023/03/14 03:39:47;;;;;;;0.50;0.40;;;10.70;99.90;;;10.82;100.00;98581.28;5159781;28;20046;-73
2023/03/14 03:42:20;;;;;;;1.48;0.82;;;10.80;99.90;;;10.84;100.00;98582.19;5144311;28;20466;-71
2023/03/14 03:44:54;;;;;;;3.08;0.98;;;10.80;99.90;;;10.86;100.00;98572.63;5144778;28;20090;-70
2023/03/14 03:47:28;;;;;;;;;;;10.80;99.90;;;10.87;100.00;98569.13;5143597;28;20050;-70
2023/03/14 03:50:02;;;;;;;;;;;10.80;99.90;;;10.88;100.00;98557.84;5159453;28;19921;-71
2023/03/14 03:52:34;;;;;;;2.15;0.80;;;10.80;99.90;;;10.90;100.00;98560.47;5142480;28;19922;-71
2023/03/14 03:55:08;;;;;;;2.53;0.70;;;10.80;99.90;;;10.91;100.00;98567.41;5159443;28;20046;-71
2023/03/14 03:57:40;;;;;;;2.33;0.70;;;10.90;99.90;;;10.93;100.00;98566.50;5143444;28;20055;-71
2023/03/14 04:00:14;;;;;;;3.45;0.80;;;10.90;99.90;;;10.96;100.00;98571.75;5143318;28;20065;-70
2023/03/14 04:02:46;;;;;;;2.83;0.80;;;10.90;99.90;;;10.98;100.00;98570.00;5144672;28;20069;-70
2023/03/14 04:05:22;;;;;;;2.03;1.02;;;10.90;99.90;;;11.01;100.00;98569.09;5144245;28;20066;-72
2023/03/14 04:08:01;;;;;;;2.40;0.80;;;11.00;99.90;;;11.06;100.00;98557.78;5142391;28;20460;-70
2023/03/14 04:10:36;;;;;;;1.70;0.65;;;11.00;99.90;;;11.09;100.00;98570.84;5158694;28;20082;-71
2023/03/14 04:13:12;;;;;;;5.28;0.98;;;11.00;99.90;;;11.11;100.00;98566.47;5142700;28;20049;-70
2023/03/14 04:15:48;;;;;;;3.65;0.93;;;11.10;99.90;;;11.10;100.00;98562.13;5158684;28;20097;-70
2023/03/14 04:18:31;;;;;;;2.97;0.80;;;11.10;99.90;;;11.16;100.00;98563.00;5142544;28;20046;-70
2023/03/14 04:21:05;;;;;;;2.42;0.80;;;11.10;99.90;;;11.17;100.00;98559.53;5142274;28;20512;-71
2023/03/14 04:23:47;;;;;;;4.90;0.85;;;11.10;99.90;;;11.18;100.00;98563.84;5158669;28;20133;-70
2023/03/14 04:26:21;;;;;;;2.75;0.52;;;11.10;99.90;;;11.28;100.00;98557.72;5142504;28;20534;-71
2023/03/14 04:28:54;;;;;;;4.28;0.88;;;11.20;99.90;;;11.39;100.00;98556.81;5158434;28;20101;-71
2023/03/14 04:31:29;;;;;;;2.28;0.50;;;11.30;99.90;;;11.37;100.00;98558.56;5142731;28;20046;-71
2023/03/14 04:34:01;;;;;;;2.95;1.00;;;11.30;99.90;;;11.40;100.00;98555.06;5143886;28;20589;-71
2023/03/14 04:36:45;;;;;;;1.95;0.80;;;11.30;99.90;;;11.41;100.00;98549.00;5142308;28;20075;-71
2023/03/14 04:39:22;;;;;;;2.75;0.75;;;11.40;99.90;;;11.42;100.00;98561.16;5142101;28;20051;-71
2023/03/14 04:42:01;;;;;;;2.22;0.60;;;11.40;99.90;;;11.40;100.00;98553.31;5142315;28;20047;-71
2023/03/14 04:44:33;;;;;;;3.78;1.30;;;11.30;99.90;;;11.38;100.00;98542.03;5142431;28;20050;-71
2023/03/14 04:47:08;;;;;;;2.90;0.85;;;11.40;99.90;;;11.37;100.00;98542.06;5142161;28;20074;-71
2023/03/14 04:49:41;;;;;;;2.75;0.82;;;11.30;99.90;;;11.36;100.00;98535.09;5142365;28;20440;-71
2023/03/14 04:52:15;;;;;;;2.40;0.60;;;11.30;99.90;;;11.40;100.00;98540.28;5158569;28;20046;-72
2023/03/14 04:54:48;;;;;;;1.40;0.70;;;11.30;99.90;;;11.36;100.00;98532.50;5158904;28;20078;-73
2023/03/14 04:57:20;;;;;;;4.75;0.63;;;11.30;99.90;;;11.38;100.00;98529.00;5143647;28;20109;-71
2023/03/14 04:59:53;;;;;;;2.05;0.60;;;11.30;99.90;;;11.36;100.00;98517.72;5142079;28;20141;-71
2023/03/14 05:02:49;;;;;;;4.32;0.63;;;11.30;99.90;;;11.33;100.00;98511.63;5144039;28;20054;-71
2023/03/14 05:05:28;;;;;;;2.50;0.47;;;11.30;99.90;;;11.34;100.00;98511.63;5146657;28;20049;-71
2023/03/14 05:08:12;;;;;;;1.90;0.70;;;11.30;99.90;;;11.30;100.00;98506.44;5144340;28;20456;-72
2023/03/14 05:10:57;;;;;;;4.60;0.63;;;11.30;99.90;;;11.28;100.00;98508.16;5158158;28;20043;-72
2023/03/14 05:13:58;;;;;;;3.22;0.70;;;11.30;99.90;;;11.26;100.00;98500.34;5138772;28;20051;-70
2023/03/14 05:16:50;;;;;;;1.25;0.45;;;11.20;99.90;;;11.25;100.00;98493.41;5131416;28;20054;-71
2023/03/14 05:19:46;;;;;;;1.70;0.60;;;11.20;99.90;;;11.25;100.00;98489.94;5122250;28;20083;-71
2023/03/14 05:22:32;;;;;;;1.38;0.40;;;11.20;99.90;;;11.26;100.00;98486.47;5138275;28;20141;-71
2023/03/14 05:25:05;;;;;;;1.80;0.40;;;11.20;99.90;;;11.29;100.00;98486.47;5130524;28;20058;-72
2023/03/14 05:28:07;;;;;;;1.65;0.55;;;11.30;99.90;;;11.30;100.00;98482.97;5091032;28;20390;-71
2023/03/14 05:30:48;;;;;;;1.60;0.40;;;11.30;99.90;;;11.23;100.00;98482.13;5127238;29;20051;-71
2023/03/14 05:33:39;;;;;;;0.70;0.50;;;11.20;99.90;;;11.26;100.00;98487.31;5127311;29;20062;-72
2023/03/14 05:36:31;;;;;;;1.85;0.75;;;11.20;99.90;;;11.23;100.00;98487.34;5139085;28;20539;-72
2023/03/14 05:39:20;;;;;;;0.40;0.40;;;11.20;99.90;;;11.23;100.00;98481.28;5144159;28;20054;-71
2023/03/14 05:42:05;;;;;;;0.50;0.43;;;11.20;99.90;;;11.18;100.00;98477.81;5125787;28;20420;-71
2023/03/14 05:44:50;;;;;;;2.05;0.30;;;11.10;99.90;;;11.20;100.00;98482.13;5125899;29;20047;-71
2023/03/14 05:47:41;;;;;;;1.05;0.43;;;11.20;99.90;;;11.18;100.00;98486.50;5133723;28;20066;-71
2023/03/14 05:50:36;;;;;;;0.32;0.32;;;11.10;99.90;;;11.13;100.00;98481.28;5145205;28;20067;-71
2023/03/14 05:53:30;;;;;;;0.40;0.40;;;11.10;99.90;;;11.14;100.00;98492.59;5145820;28;20068;-71
2023/03/14 05:56:41;;;;;;;1.05;0.47;;;11.10;99.90;;;11.20;100.00;98481.28;5104472;29;20056;-71
2023/03/14 05:59:41;;;;;;;1.20;0.30;;;11.10;99.90;;;11.21;100.00;98480.38;5104391;29;20047;-70
2023/03/14 06:02:23;;;;;;;0.40;0.40;;;11.20;99.90;;;11.21;100.00;98486.47;5134029;28;20047;-71
2023/03/14 06:05:09;;;;;;;0.30;0.30;;;11.20;99.90;;;11.21;100.00;98483.88;5145093;28;20149;-71
2023/03/14 06:07:42;;;;;;;1.08;0.40;;;11.10;99.90;;;11.20;100.00;98481.28;5161263;28;20121;-70
2023/03/14 06:10:16;;;;;;;0.30;0.30;;;11.20;99.90;;;11.25;100.00;98479.50;5145201;28;20109;-71
2023/03/14 06:12:48;;;;;;;0.88;0.30;;;11.20;99.90;;;11.21;100.00;98477.78;5161175;28;20047;-72
2023/03/14 06:15:21;;;;;;;2.08;0.22;;;11.20;99.90;;;11.20;100.00;98470.84;5145845;28;20442;-72
2023/03/14 06:17:56;;;;;;;1.45;0.50;;;11.20;99.90;;;11.21;100.00;98468.22;5145132;28;20046;-71
2023/03/14 06:20:29;;;;;;;0.50;0.32;;;11.20;99.90;;;11.18;100.00;98462.16;5165770;23;20074;-69
2023/03/14 06:23:02;;;;;;;0.50;0.28;;;11.10;99.90;;;11.14;100.00;98459.56;5148336;28;20491;-66
2023/03/14 06:25:38;;;;;;;0.63;0.28;;;11.10;99.90;;;11.12;100.00;98447.41;5144563;28;20423;-67
2023/03/14 06:28:10;;;;;;;0.77;0.30;;;11.10;99.90;;;11.09;100.00;98456.13;5145316;28;20043;-68
2023/03/14 06:30:42;;;;;;;1.02;0.20;;;11.10;99.90;;;11.16;100.00;98456.09;5145380;28;20042;-65
2023/03/14 06:33:16;;;;;;;0.25;0.20;;;11.10;99.90;;;11.21;100.00;98462.13;5160637;28;20051;-66
2023/03/14 06:35:50;;;;;;;0.30;0.30;;;11.10;99.90;;;11.21;100.00;98459.53;5160556;28;20117;-67
2023/03/14 06:38:23;;;;;;;1.60;0.50;;;11.20;99.90;;;11.18;100.00;98456.94;5145195;28;20498;-68
2023/03/14 06:41:07;;;;;;;0.20;0.20;;;11.10;99.90;;;11.21;100.00;98454.31;5159826;28;20043;-68
2023/03/14 06:43:44;;;;;;;0.20;0.20;;;11.20;99.90;;;11.19;100.00;98453.47;5160217;28;20046;-67
2023/03/14 06:46:18;;;;;;;0.30;0.30;;;11.20;99.90;;;11.24;100.00;98462.13;5168155;28;20047;-67
2023/03/14 06:48:50;;;;;;;0.55;0.40;;;11.20;99.90;;;11.26;100.00;98460.38;5162913;28;20054;-68
2023/03/14 06:51:23;;;;;;;0.52;0.50;;;11.20;99.90;;;11.25;100.00;98466.47;5146572;28;20522;-69
2023/03/14 06:53:56;;;;;;;0.35;0.30;;;11.20;99.90;;;11.23;100.00;98455.19;5145281;28;20034;-68
2023/03/14 06:56:32;;;;;;;0.13;0.13;;;11.20;99.90;;;11.27;100.00;98468.19;5176157;28;20124;-71
2023/03/14 06:59:05;;;;;;;0.30;0.30;;;11.20;99.90;;;11.37;100.00;98459.47;5163390;28;20534;-68
2023/03/14 07:01:38;;;;;;;0.75;0.40;;;11.30;99.90;;;11.44;100.00;98475.94;5143863;28;20444;-69
2023/03/14 07:04:12;;;;;;;0.30;0.30;;;11.30;99.90;;;11.72;100.00;98473.16;5148259;28;20038;-57
2023/03/14 07:06:49;;;;;;;0.40;0.30;;;11.50;99.90;;;11.87;100.00;98480.94;5165511;28;20057;-60
2023/03/14 07:09:21;;;;;;;0.32;0.30;;;11.70;99.90;;;11.90;100.00;98480.91;5145634;28;20039;-60
2023/03/14 07:12:00;;;;;;;0.45;0.20;;;11.70;99.90;;;11.88;100.00;98477.44;5167030;28;20053;-55
2023/03/14 07:14:33;;;;;;;0.70;0.30;;;11.70;99.90;;;11.72;100.00;98471.41;5143828;28;20065;-56
2023/03/14 07:17:06;;;;;;;1.10;0.30;;;11.60;99.90;;;11.65;100.00;98470.59;5166779;28;20055;-60
2023/03/14 07:19:39;;;;;;;0.70;0.30;;;11.60;99.90;;;11.66;100.00;98480.13;5166629;28;20130;-58
2023/03/14 07:22:13;;;;;;;0.35;0.30;;;11.60;99.90;;;11.67;100.00;98479.28;5158674;28;20470;-58
2023/03/14 07:24:45;;;;;;;0.43;0.28;;;11.60;99.90;;;11.73;100.00;98483.56;5143666;28;20035;-56
2023/03/14 07:27:19;;;;;;;0.10;0.10;;;11.60;99.90;;;11.85;100.00;98485.28;5143120;28;20047;-59
2023/03/14 07:29:54;;;;;;;0.20;0.20;;;11.70;99.90;;;11.98;100.00;98491.28;5173164;28;20046;-57
2023/03/14 07:32:26;;;;;;;0.13;0.13;;;11.80;99.90;;;13.01;100.00;98486.81;5159729;28;20050;-56
2023/03/14 07:34:58;;;;;;;0.73;0.20;;;12.30;99.90;;;13.47;100.00;98497.59;5156747;28;20414;-56
2023/03/14 07:37:30;;;;;;;0.25;0.22;;;12.80;99.90;;;13.38;100.00;98499.47;5158348;28;20403;-57
2023/03/14 07:40:06;;;;;;;0.50;0.17;;;12.90;99.90;;;13.13;100.00;98501.50;5154152;28;20050;-56
2023/03/14 07:42:40;;;;;;;0.30;0.30;;;12.80;99.90;;;12.90;100.00;98493.91;5158971;28;20081;-56
2023/03/14 07:45:32;;;;;;;0.35;0.35;;;12.70;99.90;;;12.71;100.00;98503.69;5174063;28;20058;-55
2023/03/14 07:48:05;;;;;;;0.32;0.32;;;12.60;99.90;;;12.59;100.00;98506.44;5143531;28;20055;-60
2023/03/14 07:50:37;;;;;;;0.40;0.30;;;12.50;99.90;;;12.57;100.00;98510.78;5151686;28;20037;-55
2023/03/14 07:53:09;;;;;;;0.10;0.10;;;12.40;99.90;;;12.52;100.00;98516.09;5143741;28;20049;-56
2023/03/14 07:55:41;;;;;;;0.28;0.20;;;12.40;99.90;;;12.52;100.00;98515.19;5143113;28;20035;-54
2023/03/14 07:58:15;;;;;;;0.35;0.30;;;12.40;99.90;;;12.51;100.00;98516.94;5151199;28;20043;-53
2023/03/14 08:00:47;;;;;;;0.40;0.30;;;12.30;99.90;;;12.55;100.00;98505.59;5143319;28;20050;-54
2023/03/14 08:03:19;;;;;;;0.75;0.30;;;12.40;99.90;;;12.68;100.00;98508.94;5151110;28;20151;-54
2023/03/14 08:05:53;;;;;;;1.10;0.22;;;12.50;99.90;;;12.77;100.00;98514.94;5143021;28;20049;-54
2023/03/14 08:08:25;;;;;;;0.38;0.20;;;12.50;99.90;;;12.89;100.00;98518.31;5143441;28;20054;-55
2023/03/14 08:10:57;;;;;;;0.10;0.10;;;12.60;99.90;;;13.61;100.00;98515.72;5143135;28;20047;-56
2023/03/14 08:13:30;;;;;;;0.20;0.20;;;13.00;99.90;;;14.27;100.00;98512.13;5146102;28;20121;-54
2023/03/14 08:16:02;;;;;;;0.30;0.30;;;13.50;99.90;;;14.43;100.00;98512.75;5147652;28;20408;-58
2023/03/14 08:18:34;;;;;;;0.30;0.30;;;13.80;99.90;;;14.34;100.00;98514.66;5142992;28;20122;-58
2023/03/14 08:21:07;;;;;;;0.60;0.60;;;13.90;99.90;;;14.16;100.00;98514.94;5143399;28;20436;-57
2023/03/14 08:23:39;;;;;;;0.20;0.20;;;13.80;99.90;;;14.01;100.00;98509.91;5143134;28;20520;-53
2023/03/14 08:26:11;;;;;;;0.40;0.20;;;13.70;99.90;;;13.87;100.00;98527.59;5142967;28;20039;-55
2023/03/14 08:28:44;;;;;;;0.28;0.28;;;13.60;99.90;;;13.76;100.00;98526.00;5143315;28;20038;-56
2023/03/14 08:31:16;;;;;;;0.15;0.15;;;13.50;99.90;;;13.68;100.00;98530.47;5142537;28;20051;-57
2023/03/14 08:33:51;;;;;;;0.28;0.28;;;13.40;99.90;;;13.62;100.00;98535.78;5159486;28;20046;-54
2023/03/14 08:36:23;;;;;;;0.13;0.13;;;13.40;99.90;;;13.55;100.00;98548.06;5152626;28;20122;-54
2023/03/14 08:38:56;;;;;;;0.25;0.25;;;13.40;99.90;;;13.48;100.00;98525.50;5149448;28;20046;-55
2023/03/14 08:41:28;;;;;;;0.22;0.22;;;13.30;99.90;;;13.45;100.00;98530.78;5144284;28;20047;-53
2023/03/14 08:44:02;;;;;;;0.95;0.20;;;13.20;99.90;;;13.51;100.00;98535.06;5142347;28;20042;-53
2023/03/14 08:46:34;;;;;;;3.17;0.98;;;13.30;99.90;;;13.64;100.00;98533.16;5150273;28;20035;-55
2023/03/14 08:49:06;;;;;;;1.65;0.68;;;13.40;99.90;;;13.85;100.00;98541.56;5142691;28;20073;-55
2023/03/14 08:51:38;;;;;;;0.73;0.57;;;13.60;99.90;;;13.89;100.00;98538.91;5142655;28;20388;-56
2023/03/14 08:54:12;;;;;;;0.40;0.40;;;13.70;99.90;;;13.93;100.00;98537.97;5150019;28;20522;-56
2023/03/14 08:56:44;;;;;;;0.20;0.20;;;13.70;99.90;;;13.96;100.00;98537.94;5142288;28;20042;-57
2023/03/14 08:59:17;;;;;;;0.13;0.13;;;13.70;99.90;;;13.97;100.00;98535.31;5142231;28;20046;-56
2023/03/14 09:01:50;;;;;;;0.20;0.20;;;13.70;99.90;;;13.98;100.00;98539.66;5142655;28;20140;-58
2023/03/14 09:04:22;;;;;;;2.03;0.25;;;13.80;99.90;;;13.95;100.00;98551.91;5142082;28;20053;-57
2023/03/14 09:06:54;;;;;;;0.10;0.10;;;13.80;99.90;;;13.89;100.00;98555.50;5142890;28;20043;-57
2023/03/14 09:09:27;;;;;;;0.20;0.20;;;13.70;99.90;;;13.83;100.00;98553.84;5142134;28;20047;-56
2023/03/14 09:11:59;;;;;;;0.90;0.30;;;13.70;99.90;;;13.81;100.00;98558.19;5142287;28;20063;-57
2023/03/14 09:14:33;;;;;;;1.10;0.35;;;13.60;99.90;;;13.78;100.00;98560.00;5145405;28;20411;-54
2023/03/14 09:17:05;;;;;;;0.22;0.22;;;13.60;99.90;;;13.73;100.00;98567.91;5157600;28;20506;-55
2023/03/14 09:19:37;;;;;;;0.35;0.35;;;13.60;99.90;;;13.72;100.00;98581.91;5149552;28;20040;-55
2023/03/14 09:22:09;;;;;;;0.30;0.30;;;13.50;99.90;;;13.67;100.00;98586.31;5143162;28;20055;-55
2023/03/14 09:24:42;;;;;;;0.30;0.25;;;13.50;99.90;;;13.62;100.00;98582.03;5149683;28;20039;-55
2023/03/14 09:27:14;;;;;;;0.30;0.30;;;13.50;99.90;;;13.58;100.00;98589.06;5149008;28;20051;-53
2023/03/14 09:29:47;;;;;;;0.80;0.40;;;13.40;99.90;;;13.54;100.00;98596.06;5145098;28;20045;-53
2023/03/14 09:32:20;;;;;;;0.30;0.30;;;13.40;99.90;;;13.50;100.00;98596.16;5143648;28;20054;-57
2023/03/14 09:34:52;;;;;;;0.22;0.20;;;13.30;99.90;;;13.48;100.00;98603.13;5140888;28;20050;-52
2023/03/14 09:37:24;;;;;;;0.50;0.40;;;13.30;99.90;;;13.45;100.00;98609.28;5141326;28;20043;-55
2023/03/14 09:39:56;;;;;;;0.30;0.30;;;13.30;99.90;;;13.38;100.00;98617.22;5141200;28;20046;-54
2023/03/14 09:42:29;;;;;;;0.73;0.30;;;13.20;99.90;;;13.30;100.00;98620.78;5150323;28;20051;-54
2023/03/14 09:45:06;;;;;;;0.30;0.30;;;13.20;99.90;;;13.22;100.00;98622.59;5142540;28;20039;-56
2023/03/14 09:47:40;;;;;;;0.30;0.30;;;13.10;99.90;;;13.13;100.00;98627.91;5142451;28;20035;-53
2023/03/14 09:50:15;;;;;;;0.75;0.30;;;13.00;99.90;;;13.07;100.00;98633.19;5151460;28;20068;-57
2023/03/14 09:52:52;;;;;;;0.35;0.30;;;13.00;99.90;;;12.97;100.00;98674.22;5146512;28;20704;-54
2023/03/14 09:55:26;;;;;;;0.30;0.30;;;12.90;99.90;;;12.61;100.00;98730.28;5146267;28;20086;-54
2023/03/14 09:58:03;;;;;;;0.40;0.30;;;12.60;99.90;;;11.96;100.00;98734.09;5146440;28;20071;-54
2023/03/14 10:00:37;;;;;;;0.82;0.30;;;12.10;99.90;;;11.50;100.00;98728.09;5160491;28;20046;-55
2023/03/14 10:03:26;;;;;;;1.25;0.30;;;11.60;99.90;;;11.08;100.00;98754.22;5146329;28;20043;-56
2023/03/14 10:05:58;;;;;;;0.70;0.43;;;11.20;99.90;;;10.73;100.00;98772.41;5150921;28;20042;-54
2023/03/14 10:08:30;;;;;;;1.13;0.50;;;10.90;99.90;;;10.53;100.00;98785.38;5154948;28;20536;-55
2023/03/14 10:11:02;;;;;;;1.50;0.63;;;10.70;99.90;;;10.42;100.00;98794.88;5145504;28;20299;-55
2023/03/14 10:13:35;;;;;;;1.00;0.75;;;10.50;99.90;;;10.25;100.00;98810.47;5144878;28;20058;-62
2023/03/14 10:16:09;;;;;;;1.40;0.70;;;10.40;99.90;;;10.15;100.00;98828.59;5145829;28;20477;-58
2023/03/14 10:18:46;;;;;;;0.60;0.60;;;10.30;99.90;;;10.01;100.00;98829.38;5153257;28;20043;-56
2023/03/14 10:21:27;;;;;;;1.20;0.80;;;10.20;99.90;;;9.96;100.00;98853.63;5175709;28;20065;-56
2023/03/14 10:24:10;;;;;;;0.88;0.73;;;10.10;99.90;;;9.88;100.00;98873.53;5159281;28;20345;-61
2023/03/14 10:26:43;;;;;;;0.98;0.70;;;10.00;99.90;;;9.80;100.00;98873.50;5156709;28;20517;-54
2023/03/14 10:29:16;;;;;;;1.20;1.10;;;10.00;99.90;;;9.79;100.00;98875.22;5152861;28;20415;-58
2023/03/14 10:31:54;;;;;;;1.10;0.70;;;9.90;99.90;;;9.80;100.00;98878.69;5145278;28;20046;-55
2023/03/14 10:34:30;;;;;;;1.98;0.90;;;9.90;99.90;;;9.81;100.00;98902.97;5149929;28;20034;-58
2023/03/14 10:37:08;;;;;;;2.22;0.90;;;9.90;99.90;;;9.76;100.00;98914.22;5152213;28;20042;-55
2023/03/14 10:39:47;;;;;;;2.17;1.10;;;9.90;99.90;;;9.71;100.00;98917.63;5156032;28;20043;-55
2023/03/14 10:42:23;;;;;;;1.33;1.00;;;9.80;99.90;;;9.66;100.00;98935.81;5136130;28;20388;-54
2023/03/14 10:44:58;;;;;;;3.08;1.17;;;9.80;99.90;;;9.56;100.00;98952.19;5166253;28;20043;-57
2023/03/14 10:47:33;;;;;;;2.72;1.10;;;9.70;99.90;;;9.47;100.00;98952.97;5154611;28;20042;-55
2023/03/14 10:50:24;;;;;;;;;;;9.60;99.90;;;9.36;100.00;98954.59;5148088;28;20043;-58